Time;durP1;ratioP1;P1;durP2;ratioP2;P2;SDS_P1;SDS_P2;PMS_P1;PMS_P2;Temp;Humidity;BMP_temperature;BMP_pressure;BME280_temperature;BME280_humidity;BME280_pressure;Samples;Min_cycle;Max_cycle;Signal;HPM_P1;HPM_P2
2022/05/10 00:00:13;;;;;;;17.20;16.50;;;;;;;-141.02;100.00;55844.97;5092941;28;20233;-78
2022/05/10 00:02:41;;;;;;;17.20;16.50;;;;;;;-141.02;100.00;55844.97;5093187;28;20243;-82
2022/05/10 00:05:09;;;;;;;17.23;16.52;;;;;;;-141.02;100.00;55844.97;5092897;28;20209;-76
2022/05/10 00:07:39;;;;;;;17.58;16.88;;;;;;;-141.02;100.00;55844.97;5092829;28;20255;-79
2022/05/10 00:10:09;;;;;;;17.10;16.40;;;;;;;-141.02;100.00;55844.97;5092670;28;20196;-80
2022/05/10 00:12:37;;;;;;;18.10;17.30;;;;;;;-141.02;100.00;55844.97;5092971;28;20190;-81
2022/05/10 00:15:05;;;;;;;17.63;16.92;;;;;;;-141.02;100.00;55844.97;5092941;28;20225;-78
2022/05/10 00:17:37;;;;;;;16.80;16.10;;;;;;;-141.02;100.00;55844.97;5092772;28;20194;-82
2022/05/10 00:20:07;;;;;;;18.15;17.35;;;;;;;-141.02;100.00;55844.97;5091943;28;20679;-77
2022/05/10 00:22:34;;;;;;;16.85;16.15;;;;;;;-141.02;100.00;55844.97;5092761;28;20272;-76
2022/05/10 00:25:01;;;;;;;16.83;16.13;;;;;;;-141.02;100.00;55844.97;5092319;28;20652;-72
2022/05/10 00:27:28;;;;;;;16.77;16.08;;;;;;;-141.02;100.00;55844.97;5092634;28;20284;-73
2022/05/10 00:29:55;;;;;;;17.65;16.95;;;;;;;-141.02;100.00;55844.97;5092296;28;20240;-74
2022/05/10 00:32:23;;;;;;;17.48;16.77;;;;;;;-141.02;100.00;55844.97;5092668;28;20189;-73
2022/05/10 00:34:52;;;;;;;17.73;16.98;;;;;;;-141.02;100.00;55844.97;5092512;28;20293;-77
2022/05/10 00:37:22;;;;;;;17.27;16.58;;;;;;;-141.02;100.00;55844.97;5092567;28;20193;-74
2022/05/10 00:39:49;;;;;;;18.00;17.20;;;;;;;-141.02;100.00;55844.97;5092423;28;20221;-74
2022/05/10 00:42:20;;;;;;;18.02;17.23;;;;;;;-141.02;100.00;55844.97;5092437;28;20251;-75
2022/05/10 00:44:50;;;;;;;18.02;17.23;;;;;;;-141.02;100.00;55844.97;5092465;28;20218;-72
2022/05/10 00:47:25;;;;;;;17.70;16.98;;;;;;;-141.02;100.00;55844.97;5092430;28;20254;-79
2022/05/10 00:50:00;;;;;;;18.05;17.25;;;;;;;-141.02;100.00;55844.97;5092435;28;20193;-73
2022/05/10 00:52:34;;;;;;;18.10;17.30;;;;;;;-141.02;100.00;55844.97;5092393;28;20427;-79
2022/05/10 00:55:07;;;;;;;17.10;16.40;;;;;;;-141.02;100.00;55844.97;5092370;28;20196;-74
2022/05/10 00:57:40;;;;;;;16.88;16.17;;;;;;;-141.02;100.00;55844.97;5092304;28;20186;-79
2022/05/10 01:00:11;;;;;;;18.50;17.70;;;;;;;-141.02;100.00;55844.97;5091904;28;20437;-74
2022/05/10 01:02:47;;;;;;;18.00;17.20;;;;;;;-141.02;100.00;55844.97;5091994;28;20273;-75
2022/05/10 01:05:24;;;;;;;16.65;15.95;;;;;;;-141.02;100.00;55844.97;5092293;28;20196;-77
2022/05/10 01:07:55;;;;;;;16.20;15.50;;;;;;;-141.02;100.00;55844.97;5092205;28;20186;-75
2022/05/10 01:10:40;;;;;;;16.08;15.48;;;;;;;-141.02;100.00;55844.97;5091956;28;20186;-74
2022/05/10 01:13:17;;;;;;;16.40;15.80;;;;;;;-141.02;100.00;55844.97;5092195;28;20181;-76
2022/05/10 01:15:52;;;;;;;16.35;15.65;;;;;;;-141.02;100.00;55844.97;5092114;28;20273;-75
2022/05/10 01:18:22;;;;;;;16.10;15.50;;;;;;;-141.02;100.00;55844.97;5091843;28;20196;-74
2022/05/10 01:20:56;;;;;;;15.98;15.38;;;;;;;-141.02;100.00;55844.97;5092016;28;20217;-73
2022/05/10 01:23:59;;;;;;;15.70;15.10;;;;;;;-141.02;100.00;55844.97;5091835;28;20272;-80
2022/05/10 01:26:38;;;;;;;16.33;15.63;;;;;;;-141.02;100.00;55844.97;5092110;28;20558;-73
2022/05/10 01:29:09;;;;;;;16.70;16.00;;;;;;;-141.02;100.00;55844.97;5090687;28;20570;-74
2022/05/10 01:31:40;;;;;;;16.60;15.90;;;;;;;-141.02;100.00;55844.97;5093534;28;20222;-72
2022/05/10 01:34:11;;;;;;;16.83;16.13;;;;;;;-141.02;100.00;55844.97;5095594;28;20727;-73
2022/05/10 01:36:44;;;;;;;16.65;15.95;;;;;;;-141.02;100.00;55844.97;5095674;28;20215;-75
2022/05/10 01:39:18;;;;;;;16.75;16.05;;;;;;;-141.02;100.00;55844.97;5095836;28;20264;-75
2022/05/10 01:41:53;;;;;;;16.42;15.73;;;;;;;-141.02;100.00;55844.97;5095766;28;20253;-76
2022/05/10 01:44:28;;;;;;;15.75;15.15;;;;;;;-141.02;100.00;55844.97;5095753;28;20231;-75
2022/05/10 01:47:00;;;;;;;15.52;14.93;;;;;;;-141.02;100.00;55844.97;5095665;28;20273;-77
2022/05/10 01:49:36;;;;;;;15.70;15.10;;;;;;;-141.02;100.00;55844.97;5095611;28;20217;-80
2022/05/10 01:52:10;;;;;;;15.00;14.40;;;;;;;-141.02;100.00;55844.97;5095281;28;20276;-81
2022/05/10 01:55:03;;;;;;;15.20;14.60;;;;;;;-141.02;100.00;55844.97;5095537;28;20626;-79
2022/05/10 01:57:33;;;;;;;14.95;14.35;;;;;;;-141.02;100.00;55844.97;5095735;28;20190;-83
2022/05/10 02:00:08;;;;;;;15.05;14.52;;;;;;;-141.02;100.00;55844.97;5094967;28;20235;-80
2022/05/10 02:02:39;;;;;;;14.90;14.40;;;;;;;-141.02;100.00;55844.97;5095348;28;20196;-77
2022/05/10 02:05:11;;;;;;;15.13;14.63;;;;;;;-141.02;100.00;55844.97;5095346;28;20222;-79
2022/05/10 02:07:42;;;;;;;15.52;14.93;;;;;;;-141.02;100.00;55844.97;5095248;28;20196;-80
2022/05/10 02:10:16;;;;;;;14.60;14.10;;;;;;;-141.02;100.00;55844.97;5095245;28;20223;-79
2022/05/10 02:12:50;;;;;;;16.00;15.40;;;;;;;-141.02;100.00;55844.97;5095174;28;20224;-76
2022/05/10 02:15:24;;;;;;;16.00;15.40;;;;;;;-141.02;100.00;55844.97;5095166;28;20277;-83
2022/05/10 02:17:57;;;;;;;14.82;14.32;;;;;;;-141.02;100.00;55844.97;5094721;28;20189;-78
2022/05/10 02:20:31;;;;;;;15.50;14.90;;;;;;;-141.02;100.00;55844.97;5094668;28;20742;-81
2022/05/10 02:23:05;;;;;;;15.10;14.60;;;;;;;-141.02;100.00;55844.97;5094943;28;20193;-76
2022/05/10 02:25:35;;;;;;;15.90;15.30;;;;;;;-141.02;100.00;55844.97;5094959;28;20265;-79
2022/05/10 02:28:06;;;;;;;15.40;14.80;;;;;;;-141.02;100.00;55844.97;5094552;28;20194;-80
2022/05/10 02:30:36;;;;;;;15.30;14.80;;;;;;;-141.02;100.00;55844.97;5094527;28;20238;-80
2022/05/10 02:33:09;;;;;;;15.67;15.07;;;;;;;-141.02;100.00;55844.97;5094702;28;20197;-81
2022/05/10 02:35:43;;;;;;;15.67;15.10;;;;;;;-141.02;100.00;55844.97;5094784;28;20194;-81
2022/05/10 02:38:13;;;;;;;14.70;14.20;;;;;;;-141.02;100.00;55844.97;5094330;28;20189;-82
2022/05/10 02:40:41;;;;;;;15.27;14.77;;;;;;;-141.02;100.00;55844.97;5094529;28;20236;-83
2022/05/10 02:43:11;;;;;;;15.47;14.97;;;;;;;-141.02;100.00;55844.97;5093356;28;20205;-84
2022/05/10 02:45:42;;;;;;;15.57;15.00;;;;;;;-141.02;100.00;55844.97;5094500;28;20271;-77
2022/05/10 02:48:14;;;;;;;15.83;15.23;;;;;;;-141.02;100.00;55844.97;5094426;28;20194;-78
2022/05/10 02:50:42;;;;;;;15.80;15.20;;;;;;;-141.02;100.00;55844.97;5094176;28;20225;-78
2022/05/10 02:53:09;;;;;;;16.23;15.63;;;;;;;-141.02;100.00;55844.97;5094329;28;20197;-78
2022/05/10 02:55:41;;;;;;;15.23;14.73;;;;;;;-141.02;100.00;55844.97;5093981;28;20204;-74
2022/05/10 02:58:16;;;;;;;15.70;15.10;;;;;;;-141.02;100.00;55844.97;5094250;28;20277;-78
2022/05/10 03:00:45;;;;;;;15.30;14.80;;;;;;;-141.02;100.00;55844.97;5094186;28;20228;-80
2022/05/10 03:03:18;;;;;;;15.00;14.50;;;;;;;-141.02;100.00;55844.97;5094176;28;20201;-73
2022/05/10 03:05:45;;;;;;;15.73;15.13;;;;;;;-141.02;100.00;55844.97;5093868;28;20683;-73
2022/05/10 03:08:12;;;;;;;14.73;14.23;;;;;;;-141.02;100.00;55844.97;5094069;28;20573;-74
2022/05/10 03:10:39;;;;;;;14.37;13.87;;;;;;;-141.02;100.00;55844.97;5094008;28;20198;-79
2022/05/10 03:13:06;;;;;;;15.27;14.77;;;;;;;-141.02;100.00;55844.97;5094006;28;20224;-74
2022/05/10 03:15:33;;;;;;;15.27;14.77;;;;;;;-141.02;100.00;55844.97;5093923;28;20190;-80
2022/05/10 03:18:02;;;;;;;14.30;13.80;;;;;;;-141.02;100.00;55844.97;5093588;28;20567;-72
2022/05/10 03:20:29;;;;;;;14.70;14.20;;;;;;;-141.02;100.00;55844.97;5093457;28;20225;-80
2022/05/10 03:22:56;;;;;;;15.00;14.50;;;;;;;-141.02;100.00;55844.97;5093484;28;20693;-74
2022/05/10 03:25:23;;;;;;;14.90;14.40;;;;;;;-141.02;100.00;55844.97;5093776;28;20243;-75
2022/05/10 03:27:50;;;;;;;14.50;14.00;;;;;;;-141.02;100.00;55844.97;5093668;28;20202;-75
2022/05/10 03:30:18;;;;;;;14.30;13.80;;;;;;;-141.02;100.00;55844.97;5093376;28;20228;-81
2022/05/10 03:32:45;;;;;;;14.17;13.67;;;;;;;-141.02;100.00;55844.97;5093624;28;20280;-77
2022/05/10 03:35:16;;;;;;;14.00;13.50;;;;;;;-141.02;100.00;55844.97;5094105;28;20194;-76
2022/05/10 03:37:43;;;;;;;13.93;13.43;;;;;;;-141.02;100.00;55844.97;5093536;28;20197;-75
2022/05/10 03:40:12;;;;;;;14.70;14.20;;;;;;;-141.02;100.00;55844.97;5093113;28;20197;-76
2022/05/10 03:42:44;;;;;;;14.80;14.30;;;;;;;-141.02;100.00;55844.97;5093468;28;20199;-75
2022/05/10 03:45:12;;;;;;;14.67;14.17;;;;;;;-141.02;100.00;55844.97;5093439;28;20291;-80
2022/05/10 03:47:39;;;;;;;14.70;14.20;;;;;;;-141.02;100.00;55844.97;5093280;28;20208;-80
2022/05/10 03:50:09;;;;;;;14.73;14.23;;;;;;;-141.02;100.00;55844.97;5092974;28;20686;-77
2022/05/10 03:52:39;;;;;;;14.20;13.70;;;;;;;-141.02;100.00;55844.97;5092955;28;20312;-75
2022/05/10 03:55:08;;;;;;;14.05;13.55;;;;;;;-141.02;100.00;55844.97;5092787;28;20197;-73
2022/05/10 03:57:35;;;;;;;14.38;13.88;;;;;;;-141.02;100.00;55844.97;5093150;28;20193;-73
2022/05/10 04:00:04;;;;;;;14.60;14.10;;;;;;;-141.02;100.00;55844.97;5092826;28;20236;-73
2022/05/10 04:02:31;;;;;;;14.00;13.50;;;;;;;-141.02;100.00;55844.97;5092924;28;20264;-73
2022/05/10 04:04:58;;;;;;;14.23;13.73;;;;;;;-141.02;100.00;55844.97;5092716;28;20289;-75
2022/05/10 04:07:25;;;;;;;14.25;13.75;;;;;;;-141.02;100.00;55844.97;5092941;28;20562;-73
2022/05/10 04:09:53;;;;;;;14.00;13.50;;;;;;;-141.02;100.00;55844.97;5092614;28;20240;-75
2022/05/10 04:12:20;;;;;;;14.43;13.90;;;;;;;-141.02;100.00;55844.97;5092576;28;20198;-80
2022/05/10 04:14:47;;;;;;;14.40;13.80;;;;;;;-141.02;100.00;55844.97;5092528;28;20595;-80
2022/05/10 04:17:14;;;;;;;14.32;13.82;;;;;;;-141.02;100.00;55844.97;5092476;28;20642;-80
2022/05/10 04:19:41;;;;;;;14.48;13.98;;;;;;;-141.02;100.00;55844.97;5092745;28;20280;-82
2022/05/10 04:22:08;;;;;;;14.90;14.30;;;;;;;-141.02;100.00;55844.97;5092617;28;20232;-76
2022/05/10 04:24:35;;;;;;;15.40;14.80;;;;;;;-141.02;100.00;55844.97;5092329;28;20233;-82
2022/05/10 04:27:04;;;;;;;15.70;15.10;;;;;;;-141.02;100.00;55844.97;5092321;28;20284;-79
2022/05/10 04:29:31;;;;;;;15.73;15.13;;;;;;;-141.02;100.00;55844.97;5092510;28;20194;-74
2022/05/10 04:31:58;;;;;;;15.90;15.20;;;;;;;-141.02;100.00;55844.97;5092574;28;20277;-73
2022/05/10 04:34:27;;;;;;;15.60;15.00;;;;;;;-141.02;100.00;55844.97;5092596;28;20220;-73
2022/05/10 04:36:54;;;;;;;16.00;15.30;;;;;;;-141.02;100.00;55844.97;5092449;28;20190;-76
2022/05/10 04:39:21;;;;;;;15.52;14.93;;;;;;;-141.02;100.00;55844.97;5092510;28;20194;-81
2022/05/10 04:41:50;;;;;;;15.65;15.05;;;;;;;-141.02;100.00;55844.97;5092119;28;20261;-73
2022/05/10 04:44:18;;;;;;;15.93;15.25;;;;;;;-141.02;100.00;55844.97;5092097;28;20244;-73
2022/05/10 04:46:45;;;;;;;16.15;15.45;;;;;;;-141.02;100.00;55844.97;5092109;28;20197;-75
2022/05/10 04:49:15;;;;;;;15.70;15.10;;;;;;;-141.02;100.00;55844.97;5092374;28;20219;-73
2022/05/10 04:51:42;;;;;;;15.63;15.02;;;;;;;-141.02;100.00;55844.97;5091992;28;20579;-74
2022/05/10 04:54:09;;;;;;;15.70;15.10;;;;;;;-141.02;100.00;55844.97;5091988;28;20237;-73
2022/05/10 04:56:37;;;;;;;15.68;15.07;;;;;;;-141.02;100.00;55844.97;5092305;28;20202;-74
2022/05/10 04:59:04;;;;;;;15.85;15.25;;;;;;;-141.02;100.00;55844.97;5092338;28;20190;-75
2022/05/10 05:01:32;;;;;;;15.77;15.18;;;;;;;-141.02;100.00;55844.97;5092199;28;20235;-74
2022/05/10 05:04:01;;;;;;;15.73;15.13;;;;;;;-141.02;100.00;55844.97;5092082;28;20198;-73
2022/05/10 05:06:28;;;;;;;15.55;14.95;;;;;;;-141.02;100.00;55844.97;5093685;28;20659;-74
2022/05/10 05:08:56;;;;;;;15.45;14.85;;;;;;;-141.02;100.00;55844.97;5096101;28;20189;-73
2022/05/10 05:11:24;;;;;;;15.52;14.93;;;;;;;-141.02;100.00;55844.97;5096001;28;20573;-75
2022/05/10 05:13:51;;;;;;;15.30;14.70;;;;;;;-141.02;100.00;55844.97;5095942;28;20251;-74
2022/05/10 05:16:18;;;;;;;15.90;15.20;;;;;;;-141.02;100.00;55844.97;5096281;28;20190;-74
2022/05/10 05:18:47;;;;;;;15.80;15.20;;;;;;;-141.02;100.00;55844.97;5095873;28;20194;-76
2022/05/10 05:21:14;;;;;;;15.80;15.20;;;;;;;-141.02;100.00;55844.97;5096069;28;20304;-72
2022/05/10 05:23:42;;;;;;;15.32;14.73;;;;;;;-141.02;100.00;55844.97;5095777;28;20285;-74
2022/05/10 05:26:09;;;;;;;15.50;14.90;;;;;;;-141.02;100.00;55844.97;5095831;28;20201;-76
2022/05/10 05:28:36;;;;;;;15.73;15.13;;;;;;;-141.02;100.00;55844.97;5095987;28;20198;-74
2022/05/10 05:31:04;;;;;;;15.77;15.18;;;;;;;-141.02;100.00;55844.97;5095431;28;20239;-75
2022/05/10 05:33:31;;;;;;;15.68;15.07;;;;;;;-141.02;100.00;55844.97;5095605;28;20284;-73
2022/05/10 05:35:59;;;;;;;15.57;14.98;;;;;;;-141.02;100.00;55844.97;5095815;28;20193;-75
2022/05/10 05:38:27;;;;;;;15.57;14.98;;;;;;;-141.02;100.00;55844.97;5095851;28;20372;-73
2022/05/10 05:40:54;;;;;;;15.90;15.30;;;;;;;-141.02;100.00;55844.97;5095652;28;20220;-79
2022/05/10 05:43:22;;;;;;;15.48;14.88;;;;;;;-141.02;100.00;55844.97;5095722;28;20225;-73
2022/05/10 05:45:51;;;;;;;15.35;14.75;;;;;;;-141.02;100.00;55844.97;5095648;28;20236;-77
2022/05/10 05:48:18;;;;;;;15.10;14.50;;;;;;;-141.02;100.00;55844.97;5095300;28;20198;-76
2022/05/10 05:50:45;;;;;;;15.40;14.80;;;;;;;-141.02;100.00;55844.97;5095615;28;20236;-75
2022/05/10 05:53:14;;;;;;;15.32;14.73;;;;;;;-141.02;100.00;55844.97;5095529;28;20202;-76
2022/05/10 05:55:42;;;;;;;15.20;14.60;;;;;;;-141.02;100.00;55844.97;5095161;28;20285;-72
2022/05/10 05:58:10;;;;;;;16.00;15.40;;;;;;;-141.02;100.00;55844.97;5095476;28;20190;-74
2022/05/10 06:00:37;;;;;;;15.38;14.77;;;;;;;-141.02;100.00;55844.97;5095509;28;20276;-75
2022/05/10 06:03:04;;;;;;;16.00;15.40;;;;;;;-141.02;100.00;55844.97;5094980;28;20229;-81
2022/05/10 06:05:32;;;;;;;15.85;15.25;;;;;;;-141.02;100.00;55844.97;5095267;28;20189;-81
2022/05/10 06:08:00;;;;;;;16.02;15.43;;;;;;;-141.02;100.00;55844.97;5095047;28;20672;-77
2022/05/10 06:10:29;;;;;;;16.10;15.50;;;;;;;-141.02;100.00;55844.97;5094843;28;20201;-75
2022/05/10 06:12:59;;;;;;;15.75;15.15;;;;;;;-141.02;100.00;55844.97;5094819;28;20581;-78
2022/05/10 06:15:26;;;;;;;16.05;15.45;;;;;;;-141.02;100.00;55844.97;5094775;28;20247;-80
2022/05/10 06:17:53;;;;;;;15.75;15.15;;;;;;;-141.02;100.00;55844.97;5093850;28;20232;-76
2022/05/10 06:20:22;;;;;;;15.68;15.07;;;;;;;-141.02;100.00;55844.97;5094715;28;20198;-76
2022/05/10 06:22:49;;;;;;;15.55;14.95;;;;;;;-141.02;100.00;55844.97;5094899;28;20268;-78
2022/05/10 06:25:19;;;;;;;16.98;16.27;;;;;;;-141.02;100.00;55844.97;5094935;28;20721;-81
2022/05/10 06:27:47;;;;;;;15.88;15.20;;;;;;;-141.02;100.00;55844.97;5094881;28;20243;-77
2022/05/10 06:30:15;;;;;;;15.77;15.18;;;;;;;-141.02;100.00;55844.97;5094317;28;20726;-76
2022/05/10 06:32:42;;;;;;;15.88;15.27;;;;;;;-141.02;100.00;55844.97;5094801;28;20265;-81
2022/05/10 06:35:10;;;;;;;16.15;15.45;;;;;;;-141.02;100.00;55844.97;5094770;28;20197;-73
2022/05/10 06:40:21;;;;;;;15.70;15.10;;;;;;;-141.02;100.00;55844.97;5094797;28;20654;-77
2022/05/10 06:42:50;;;;;;;16.25;15.60;;;;;;;-141.02;100.00;55844.97;5094538;28;20267;-78
2022/05/10 06:45:19;;;;;;;15.73;15.13;;;;;;;-141.02;100.00;55844.97;5094582;28;20194;-78
2022/05/10 06:47:49;;;;;;;16.05;15.45;;;;;;;-141.02;100.00;55844.97;5094192;28;20648;-74
2022/05/10 06:50:19;;;;;;;15.63;15.02;;;;;;;-141.02;100.00;55844.97;5094479;28;20597;-79
2022/05/10 06:52:47;;;;;;;16.40;15.80;;;;;;;-141.02;100.00;55844.97;5094434;28;20188;-74
2022/05/10 06:55:14;;;;;;;16.25;15.60;;;;;;;-141.02;100.00;55844.97;5094341;28;20198;-75
2022/05/10 06:57:41;;;;;;;16.80;16.10;;;;;;;-141.02;100.00;55844.97;5093966;28;20285;-75
2022/05/10 07:00:12;;;;;;;17.30;16.60;;;;;;;-141.02;100.00;55844.97;5093912;28;20194;-75
2022/05/10 07:02:40;;;;;;;16.60;16.00;;;;;;;-141.02;100.00;55844.97;5094196;28;20309;-77
2022/05/10 07:05:08;;;;;;;17.85;17.05;;;;;;;-141.02;100.00;55844.97;5093868;28;20241;-75
2022/05/10 07:07:35;;;;;;;17.08;16.38;;;;;;;-141.02;100.00;55844.97;5094064;28;20254;-77
2022/05/10 07:10:03;;;;;;;16.60;16.00;;;;;;;-141.02;100.00;55844.97;5093788;28;20194;-74
2022/05/10 07:12:30;;;;;;;16.10;15.50;;;;;;;-141.02;100.00;55844.97;5093675;28;20650;-73
2022/05/10 07:14:57;;;;;;;15.98;15.38;;;;;;;-141.02;100.00;55844.97;5093973;28;20272;-76
2022/05/10 07:17:26;;;;;;;16.60;16.00;;;;;;;-141.02;100.00;55844.97;5093642;28;20198;-75
2022/05/10 07:19:53;;;;;;;16.17;15.57;;;;;;;-141.02;100.00;55844.97;5093874;28;20224;-74
2022/05/10 07:22:20;;;;;;;15.50;14.90;;;;;;;-141.02;100.00;55844.97;5093800;28;20238;-77
2022/05/10 07:24:47;;;;;;;15.30;14.80;;;;;;;-141.02;100.00;55844.97;5093483;28;20285;-77
2022/05/10 07:27:13;;;;;;;15.38;14.88;;;;;;;-141.02;100.00;55844.97;5093836;28;20189;-75
2022/05/10 07:29:42;;;;;;;14.80;14.30;;;;;;;-141.02;100.00;55844.97;5093063;28;20233;-78
2022/05/10 07:32:10;;;;;;;16.40;15.80;;;;;;;-141.02;100.00;55844.97;5093563;28;20248;-78
2022/05/10 07:34:38;;;;;;;15.38;14.77;;;;;;;-141.02;100.00;55844.97;5093565;28;20198;-74
2022/05/10 07:37:05;;;;;;;15.75;15.15;;;;;;;-141.02;100.00;55844.97;5093526;28;20640;-76
2022/05/10 07:39:32;;;;;;;15.48;14.88;;;;;;;-141.02;100.00;55844.97;5093230;28;20194;-74
2022/05/10 07:42:03;;;;;;;15.48;14.88;;;;;;;-141.02;100.00;55844.97;5093323;28;20221;-75
2022/05/10 07:44:30;;;;;;;17.65;16.95;;;;;;;-141.02;100.00;55844.97;5093494;28;20201;-75
2022/05/10 07:46:57;;;;;;;15.45;14.85;;;;;;;-141.02;100.00;55844.97;5093333;28;20231;-77
2022/05/10 07:49:24;;;;;;;15.05;14.45;;;;;;;-141.02;100.00;55844.97;5093049;28;20219;-75
2022/05/10 07:51:52;;;;;;;15.63;15.02;;;;;;;-141.02;100.00;55844.97;5093032;28;20200;-77
2022/05/10 07:54:20;;;;;;;14.40;13.90;;;;;;;-141.02;100.00;55844.97;5092962;28;20739;-80
2022/05/10 07:56:47;;;;;;;14.45;13.95;;;;;;;-141.02;100.00;55844.97;5093255;28;20201;-75
2022/05/10 07:59:15;;;;;;;15.32;14.73;;;;;;;-141.02;100.00;55844.97;5093130;28;20190;-78
2022/05/10 08:01:42;;;;;;;15.15;14.55;;;;;;;-141.02;100.00;55844.97;5092658;28;20658;-75
2022/05/10 08:04:09;;;;;;;15.10;14.50;;;;;;;-141.02;100.00;55844.97;5092709;28;20650;-79
2022/05/10 08:06:37;;;;;;;15.38;14.77;;;;;;;-141.02;100.00;55844.97;5092733;28;20664;-75
2022/05/10 08:09:05;;;;;;;15.90;15.30;;;;;;;-141.02;100.00;55844.97;5092966;28;20201;-75
2022/05/10 08:11:32;;;;;;;15.20;14.60;;;;;;;-141.02;100.00;55844.97;5093006;28;20284;-75
2022/05/10 08:13:59;;;;;;;15.57;14.98;;;;;;;-141.02;100.00;55844.97;5092568;28;20194;-82
2022/05/10 08:16:31;;;;;;;15.30;14.70;;;;;;;-141.02;100.00;55844.97;5092537;28;20230;-74
2022/05/10 08:18:58;;;;;;;15.35;14.75;;;;;;;-141.02;100.00;55844.97;5092555;28;20306;-74
2022/05/10 08:21:25;;;;;;;15.20;14.60;;;;;;;-141.02;100.00;55844.97;5092766;28;20197;-73
2022/05/10 08:23:55;;;;;;;15.60;15.00;;;;;;;-141.02;100.00;55844.97;5092350;28;20324;-77
2022/05/10 08:26:24;;;;;;;15.65;15.05;;;;;;;-141.02;100.00;55844.97;5092497;28;20695;-75
2022/05/10 08:28:51;;;;;;;14.93;14.43;;;;;;;-141.02;100.00;55844.97;5092327;28;20549;-80
2022/05/10 08:31:20;;;;;;;14.68;14.18;;;;;;;-141.02;100.00;55844.97;5092149;28;20229;-76
2022/05/10 08:33:48;;;;;;;14.90;14.40;;;;;;;-141.02;100.00;55844.97;5092245;28;20280;-74
2022/05/10 08:36:15;;;;;;;15.35;14.75;;;;;;;-141.02;100.00;55844.97;5092201;28;20674;-76
2022/05/10 08:38:42;;;;;;;15.93;15.32;;;;;;;-141.02;100.00;55844.97;5092490;28;20225;-74
2022/05/10 08:41:14;;;;;;;17.00;16.30;;;;;;;-141.02;100.00;55844.97;5091471;28;20193;-77
2022/05/10 08:43:46;;;;;;;15.15;14.65;;;;;;;-141.02;100.00;55844.97;5092160;28;20236;-75
2022/05/10 08:46:17;;;;;;;15.88;15.27;;;;;;;-141.02;100.00;55844.97;5092263;28;20225;-73
2022/05/10 08:48:47;;;;;;;15.77;15.18;;;;;;;-141.02;100.00;55844.97;5092496;28;20197;-73
2022/05/10 08:51:15;;;;;;;16.10;15.50;;;;;;;-141.02;100.00;55844.97;5092332;28;20197;-75
2022/05/10 08:53:42;;;;;;;15.57;14.98;;;;;;;-141.02;100.00;55844.97;5092440;28;20219;-75
2022/05/10 08:56:18;;;;;;;15.10;14.60;;;;;;;-141.02;100.00;55844.97;5092450;28;20284;-77
2022/05/10 08:58:57;;;;;;;15.02;14.52;;;;;;;-141.02;100.00;55844.97;5092442;28;20190;-75
2022/05/10 09:01:29;;;;;;;19.52;18.73;;;;;;;-141.02;100.00;55844.97;5092051;28;20739;-75
2022/05/10 09:04:05;;;;;;;15.70;15.10;;;;;;;-141.02;100.00;55844.97;5092323;28;20326;-76
2022/05/10 09:06:44;;;;;;;15.50;14.90;;;;;;;-141.02;100.00;55844.97;5091996;28;20199;-77
2022/05/10 09:09:23;;;;;;;15.20;14.60;;;;;;;-141.02;100.00;55844.97;5092376;28;20286;-75
2022/05/10 09:11:53;;;;;;;15.40;14.80;;;;;;;-141.02;100.00;55844.97;5092335;28;20186;-76
2022/05/10 09:14:36;;;;;;;15.50;14.90;;;;;;;-141.02;100.00;55844.97;5091910;28;20743;-74
2022/05/10 09:17:04;;;;;;;15.55;14.95;;;;;;;-141.02;100.00;55844.97;5091879;28;20196;-76
2022/05/10 09:19:38;;;;;;;15.27;14.68;;;;;;;-141.02;100.00;55844.97;5091824;28;20237;-74
2022/05/10 09:22:17;;;;;;;15.30;14.70;;;;;;;-141.02;100.00;55844.97;5092086;28;20197;-74
2022/05/10 09:24:49;;;;;;;15.60;15.00;;;;;;;-141.02;100.00;55844.97;5091867;28;20186;-75
2022/05/10 09:27:18;;;;;;;15.00;14.48;;;;;;;-141.02;100.00;55844.97;5092223;28;20186;-74
2022/05/10 09:29:49;;;;;;;15.07;14.52;;;;;;;-141.02;100.00;55844.97;5091991;28;20197;-74
2022/05/10 09:35:13;;;;;;;15.15;14.55;;;;;;;-141.02;100.00;55844.97;5092099;28;20200;-74
2022/05/10 09:37:45;;;;;;;15.20;14.60;;;;;;;-141.02;100.00;55844.97;5091727;28;20194;-73
2022/05/10 09:40:27;;;;;;;16.08;15.38;;;;;;;-141.02;100.00;55844.97;5092038;28;20190;-73
2022/05/10 09:43:11;;;;;;;15.75;15.15;;;;;;;-141.02;100.00;55844.97;5091549;28;20224;-75
2022/05/10 09:45:40;;;;;;;16.63;16.02;;;;;;;-141.02;100.00;55844.97;5092462;28;20193;-73
2022/05/10 09:48:15;;;;;;;15.07;14.48;;;;;;;-141.02;100.00;55844.97;5091767;28;20236;-71
2022/05/10 09:50:45;;;;;;;17.38;16.67;;;;;;;-141.02;100.00;55844.97;5091988;28;20243;-75
2022/05/10 09:53:20;;;;;;;15.10;14.50;;;;;;;-141.02;100.00;55844.97;5094316;28;20194;-73
2022/05/10 09:56:00;;;;;;;15.02;14.43;;;;;;;-141.02;100.00;55844.97;5095290;28;20185;-79
2022/05/10 09:58:30;;;;;;;15.88;15.27;;;;;;;-141.02;100.00;55844.97;5095574;28;20319;-75
2022/05/10 10:01:00;;;;;;;17.10;16.40;;;;;;;-141.02;100.00;55844.97;5095429;28;20208;-73
2022/05/10 10:03:32;;;;;;;15.18;14.57;;;;;;;-141.02;100.00;55844.97;5095010;28;20626;-72
2022/05/10 10:06:15;;;;;;;15.10;14.50;;;;;;;-141.02;100.00;55844.97;5095170;28;20190;-72
2022/05/10 10:08:44;;;;;;;14.68;14.18;;;;;;;-141.02;100.00;55844.97;5095349;28;20212;-75
2022/05/10 10:11:13;;;;;;;14.68;14.18;;;;;;;-141.02;100.00;55844.97;5094950;28;20735;-74
2022/05/10 10:13:43;;;;;;;14.60;14.10;;;;;;;-141.02;100.00;55844.97;5094999;28;20623;-74
2022/05/10 10:16:24;;;;;;;14.70;14.20;;;;;;;-141.02;100.00;55844.97;5095232;28;20204;-75
2022/05/10 10:18:55;;;;;;;14.55;14.05;;;;;;;-141.02;100.00;55844.97;5095121;28;20551;-72
2022/05/10 10:21:29;;;;;;;15.00;14.40;;;;;;;-141.02;100.00;55844.97;5095128;28;20281;-72
2022/05/10 10:23:59;;;;;;;15.30;14.70;;;;;;;-141.02;100.00;55844.97;5094961;28;20213;-76
2022/05/10 10:26:34;;;;;;;15.25;14.65;;;;;;;-141.02;100.00;55844.97;5095072;28;20186;-74
2022/05/10 10:29:09;;;;;;;15.27;14.68;;;;;;;-141.02;100.00;55844.97;5094635;28;20754;-79
2022/05/10 10:31:41;;;;;;;15.10;14.50;;;;;;;-141.02;100.00;55844.97;5094547;28;20260;-74
2022/05/10 10:34:15;;;;;;;15.38;14.77;;;;;;;-141.02;100.00;55844.97;5094697;28;20201;-76
2022/05/10 10:36:48;;;;;;;15.70;15.10;;;;;;;-141.02;100.00;55844.97;5094970;28;20228;-75
2022/05/10 10:39:33;;;;;;;15.40;14.80;;;;;;;-141.02;100.00;55844.97;5094452;28;20185;-72
2022/05/10 10:42:09;;;;;;;16.00;15.40;;;;;;;-141.02;100.00;55844.97;5094402;28;20337;-73
2022/05/10 10:44:41;;;;;;;15.60;15.00;;;;;;;-141.02;100.00;55844.97;5094681;28;20296;-73
2022/05/10 10:47:21;;;;;;;16.00;15.40;;;;;;;-141.02;100.00;55844.97;5094585;28;20269;-72
2022/05/10 10:49:54;;;;;;;15.60;15.00;;;;;;;-141.02;100.00;55844.97;5095106;28;20280;-74
2022/05/10 10:52:21;;;;;;;15.30;14.70;;;;;;;-141.02;100.00;55844.97;5094214;28;20272;-75
2022/05/10 10:54:49;;;;;;;15.55;14.95;;;;;;;-141.02;100.00;55844.97;5094424;28;20198;-76
2022/05/10 10:57:44;;;;;;;15.32;14.73;;;;;;;-141.02;100.00;55844.97;5094006;28;20200;-74
2022/05/10 11:00:15;;;;;;;14.93;14.38;;;;;;;-141.02;100.00;55844.97;5093962;28;20186;-75
2022/05/10 11:03:01;;;;;;;14.73;14.23;;;;;;;-141.02;100.00;55844.97;5093965;28;20273;-75
2022/05/10 11:05:52;;;;;;;15.25;14.65;;;;;;;-141.02;100.00;55844.97;5093938;28;20634;-81
2022/05/10 11:08:32;;;;;;;14.85;14.35;;;;;;;-141.02;100.00;55844.97;5094210;28;20217;-73
2022/05/10 11:11:12;;;;;;;14.82;14.32;;;;;;;-141.02;100.00;55844.97;5093855;28;20186;-71
2022/05/10 11:13:51;;;;;;;15.35;14.75;;;;;;;-141.02;100.00;55844.97;5093849;28;20671;-73